sensor_id;sensor_type;location;lat;lon;timestamp;temperature;humidity
26707;DHT22;14319;49.422;10.934;2022-11-25T00:01:44;2.90;83.10
26707;DHT22;14319;49.422;10.934;2022-11-25T00:03:45;2.90;85.10
26707;DHT22;14319;49.422;10.934;2022-11-25T00:05:45;3.00;85.20
26707;DHT22;14319;49.422;10.934;2022-11-25T00:07:46;3.10;84.40
26707;DHT22;14319;49.422;10.934;2022-11-25T00:09:47;3.20;84.30
26707;DHT22;14319;49.422;10.934;2022-11-25T00:11:48;3.20;83.90
26707;DHT22;14319;49.422;10.934;2022-11-25T00:13:48;3.30;83.50
26707;DHT22;14319;49.422;10.934;2022-11-25T00:15:49;3.30;83.20
26707;DHT22;14319;49.422;10.934;2022-11-25T00:17:50;3.30;83.60
26707;DHT22;14319;49.422;10.934;2022-11-25T00:19:51;3.30;83.40
26707;DHT22;14319;49.422;10.934;2022-11-25T00:21:51;3.30;83.00
26707;DHT22;14319;49.422;10.934;2022-11-25T00:23:53;3.20;82.80
26707;DHT22;14319;49.422;10.934;2022-11-25T00:25:53;3.20;83.40
26707;DHT22;14319;49.422;10.934;2022-11-25T00:27:54;3.30;83.90
26707;DHT22;14319;49.422;10.934;2022-11-25T00:29:54;3.20;82.90
26707;DHT22;14319;49.422;10.934;2022-11-25T00:31:55;3.20;83.20
26707;DHT22;14319;49.422;10.934;2022-11-25T00:33:56;3.30;82.70
26707;DHT22;14319;49.422;10.934;2022-11-25T00:35:59;3.30;82.90
26707;DHT22;14319;49.422;10.934;2022-11-25T00:37:59;3.30;82.90
26707;DHT22;14319;49.422;10.934;2022-11-25T00:40:00;3.20;83.40
26707;DHT22;14319;49.422;10.934;2022-11-25T00:42:00;3.20;83.60
26707;DHT22;14319;49.422;10.934;2022-11-25T00:44:20;3.30;83.80
26707;DHT22;14319;49.422;10.934;2022-11-25T00:46:36;3.20;84.30
26707;DHT22;14319;49.422;10.934;2022-11-25T00:48:37;3.20;84.40
26707;DHT22;14319;49.422;10.934;2022-11-25T00:50:37;3.20;83.30
26707;DHT22;14319;49.422;10.934;2022-11-25T00:52:38;3.30;83.70
26707;DHT22;14319;49.422;10.934;2022-11-25T00:54:39;3.30;83.30
26707;DHT22;14319;49.422;10.934;2022-11-25T00:56:39;3.10;83.00
26707;DHT22;14319;49.422;10.934;2022-11-25T00:58:43;3.20;83.70
26707;DHT22;14319;49.422;10.934;2022-11-25T01:00:44;3.20;83.10
26707;DHT22;14319;49.422;10.934;2022-11-25T01:02:46;3.20;83.70
26707;DHT22;14319;49.422;10.934;2022-11-25T01:04:47;3.00;83.00
26707;DHT22;14319;49.422;10.934;2022-11-25T01:06:51;2.80;85.20
26707;DHT22;14319;49.422;10.934;2022-11-25T01:08:53;2.80;84.70
26707;DHT22;14319;49.422;10.934;2022-11-25T01:11:00;2.80;85.10
26707;DHT22;14319;49.422;10.934;2022-11-25T01:13:01;2.90;85.00
26707;DHT22;14319;49.422;10.934;2022-11-25T01:15:02;3.00;84.40
26707;DHT22;14319;49.422;10.934;2022-11-25T01:17:03;2.80;84.40
26707;DHT22;14319;49.422;10.934;2022-11-25T01:19:06;2.70;84.10
26707;DHT22;14319;49.422;10.934;2022-11-25T01:21:07;2.70;85.60
26707;DHT22;14319;49.422;10.934;2022-11-25T01:23:08;2.80;84.80
26707;DHT22;14319;49.422;10.934;2022-11-25T01:25:09;2.80;84.80
26707;DHT22;14319;49.422;10.934;2022-11-25T01:27:11;2.80;84.60
26707;DHT22;14319;49.422;10.934;2022-11-25T01:29:13;2.80;84.60
26707;DHT22;14319;49.422;10.934;2022-11-25T01:31:18;2.90;84.70
26707;DHT22;14319;49.422;10.934;2022-11-25T01:33:19;2.90;84.40
26707;DHT22;14319;49.422;10.934;2022-11-25T01:35:20;3.00;83.60
26707;DHT22;14319;49.422;10.934;2022-11-25T01:37:26;3.00;83.60
26707;DHT22;14319;49.422;10.934;2022-11-25T01:39:27;2.90;83.40
26707;DHT22;14319;49.422;10.934;2022-11-25T01:41:29;3.00;83.20
26707;DHT22;14319;49.422;10.934;2022-11-25T01:43:30;2.90;82.00
26707;DHT22;14319;49.422;10.934;2022-11-25T01:45:32;2.80;83.60
26707;DHT22;14319;49.422;10.934;2022-11-25T01:47:33;2.60;83.60
26707;DHT22;14319;49.422;10.934;2022-11-25T01:53:50;2.40;85.30
26707;DHT22;14319;49.422;10.934;2022-11-25T01:55:52;2.50;86.30
26707;DHT22;14319;49.422;10.934;2022-11-25T01:58:05;2.50;85.10
26707;DHT22;14319;49.422;10.934;2022-11-25T02:00:07;2.50;85.80
26707;DHT22;14319;49.422;10.934;2022-11-25T02:02:17;2.50;85.20
26707;DHT22;14319;49.422;10.934;2022-11-25T02:04:19;2.40;85.30
26707;DHT22;14319;49.422;10.934;2022-11-25T02:06:24;2.40;85.40
26707;DHT22;14319;49.422;10.934;2022-11-25T02:08:26;2.50;85.30
26707;DHT22;14319;49.422;10.934;2022-11-25T02:10:28;2.40;84.70
26707;DHT22;14319;49.422;10.934;2022-11-25T02:12:30;2.10;84.50
26707;DHT22;14319;49.422;10.934;2022-11-25T02:14:31;2.10;85.90
26707;DHT22;14319;49.422;10.934;2022-11-25T02:16:31;2.10;86.30
26707;DHT22;14319;49.422;10.934;2022-11-25T02:18:32;2.20;86.50
26707;DHT22;14319;49.422;10.934;2022-11-25T02:20:32;2.10;85.10
26707;DHT22;14319;49.422;10.934;2022-11-25T02:24:50;2.30;86.60
26707;DHT22;14319;49.422;10.934;2022-11-25T02:26:53;2.30;86.00
26707;DHT22;14319;49.422;10.934;2022-11-25T02:28:55;2.30;86.30
26707;DHT22;14319;49.422;10.934;2022-11-25T02:30:56;2.30;86.30
26707;DHT22;14319;49.422;10.934;2022-11-25T02:32:57;2.40;86.40
26707;DHT22;14319;49.422;10.934;2022-11-25T02:34:58;2.40;85.60
26707;DHT22;14319;49.422;10.934;2022-11-25T02:36:59;2.40;86.20
26707;DHT22;14319;49.422;10.934;2022-11-25T02:38:59;2.40;85.10
26707;DHT22;14319;49.422;10.934;2022-11-25T02:41:09;2.40;86.00
26707;DHT22;14319;49.422;10.934;2022-11-25T02:43:10;2.40;85.70
26707;DHT22;14319;49.422;10.934;2022-11-25T02:45:11;2.40;86.00
26707;DHT22;14319;49.422;10.934;2022-11-25T02:47:12;2.40;85.80
26707;DHT22;14319;49.422;10.934;2022-11-25T02:49:13;2.40;85.30
26707;DHT22;14319;49.422;10.934;2022-11-25T02:51:17;2.50;84.20
26707;DHT22;14319;49.422;10.934;2022-11-25T02:53:17;2.30;83.10
26707;DHT22;14319;49.422;10.934;2022-11-25T02:55:21;2.20;84.20
26707;DHT22;14319;49.422;10.934;2022-11-25T02:57:22;2.30;85.30
26707;DHT22;14319;49.422;10.934;2022-11-25T02:59:22;2.30;85.20
26707;DHT22;14319;49.422;10.934;2022-11-25T03:01:24;2.40;85.10
26707;DHT22;14319;49.422;10.934;2022-11-25T03:03:24;2.00;83.90
26707;DHT22;14319;49.422;10.934;2022-11-25T03:05:25;2.00;85.60
26707;DHT22;14319;49.422;10.934;2022-11-25T03:07:28;1.70;85.60
26707;DHT22;14319;49.422;10.934;2022-11-25T03:09:31;1.40;86.20
26707;DHT22;14319;49.422;10.934;2022-11-25T03:11:32;1.60;87.10
26707;DHT22;14319;49.422;10.934;2022-11-25T03:13:52;1.80;86.10
26707;DHT22;14319;49.422;10.934;2022-11-25T03:15:52;1.90;85.60
26707;DHT22;14319;49.422;10.934;2022-11-25T03:17:53;2.00;85.40
26707;DHT22;14319;49.422;10.934;2022-11-25T03:19:54;1.90;85.50
26707;DHT22;14319;49.422;10.934;2022-11-25T03:21:55;1.80;85.60
26707;DHT22;14319;49.422;10.934;2022-11-25T03:23:56;1.70;85.40
26707;DHT22;14319;49.422;10.934;2022-11-25T03:25:56;1.80;86.30
26707;DHT22;14319;49.422;10.934;2022-11-25T03:27:57;2.00;85.70
26707;DHT22;14319;49.422;10.934;2022-11-25T03:29:59;2.10;85.80
26707;DHT22;14319;49.422;10.934;2022-11-25T03:32:00;2.20;85.10
26707;DHT22;14319;49.422;10.934;2022-11-25T03:34:01;2.30;84.60
26707;DHT22;14319;49.422;10.934;2022-11-25T03:36:02;2.40;84.20
26707;DHT22;14319;49.422;10.934;2022-11-25T03:38:02;2.40;84.40
26707;DHT22;14319;49.422;10.934;2022-11-25T03:40:11;2.50;84.40
26707;DHT22;14319;49.422;10.934;2022-11-25T03:42:13;2.40;84.20
26707;DHT22;14319;49.422;10.934;2022-11-25T03:44:13;2.50;83.90
26707;DHT22;14319;49.422;10.934;2022-11-25T03:46:15;2.40;84.00
26707;DHT22;14319;49.422;10.934;2022-11-25T03:48:15;2.30;84.50
26707;DHT22;14319;49.422;10.934;2022-11-25T03:50:16;2.20;84.40
26707;DHT22;14319;49.422;10.934;2022-11-25T03:52:19;2.20;85.20
26707;DHT22;14319;49.422;10.934;2022-11-25T03:54:23;2.30;86.00
26707;DHT22;14319;49.422;10.934;2022-11-25T03:56:44;2.20;84.50
26707;DHT22;14319;49.422;10.934;2022-11-25T03:58:45;2.20;84.80
26707;DHT22;14319;49.422;10.934;2022-11-25T04:00:46;2.20;84.90
26707;DHT22;14319;49.422;10.934;2022-11-25T04:02:47;2.00;84.20
26707;DHT22;14319;49.422;10.934;2022-11-25T04:04:50;2.00;85.30
26707;DHT22;14319;49.422;10.934;2022-11-25T04:06:51;2.10;85.00
26707;DHT22;14319;49.422;10.934;2022-11-25T04:08:52;1.90;84.70
26707;DHT22;14319;49.422;10.934;2022-11-25T04:10:54;1.90;84.60
26707;DHT22;14319;49.422;10.934;2022-11-25T04:12:58;1.80;84.80
26707;DHT22;14319;49.422;10.934;2022-11-25T04:15:06;1.80;86.10
26707;DHT22;14319;49.422;10.934;2022-11-25T04:17:07;2.00;86.20
26707;DHT22;14319;49.422;10.934;2022-11-25T04:19:09;2.10;85.90
26707;DHT22;14319;49.422;10.934;2022-11-25T04:21:11;2.10;85.30
26707;DHT22;14319;49.422;10.934;2022-11-25T04:23:12;2.10;85.20
26707;DHT22;14319;49.422;10.934;2022-11-25T04:25:24;2.10;85.00
26707;DHT22;14319;49.422;10.934;2022-11-25T04:27:26;2.10;85.90
26707;DHT22;14319;49.422;10.934;2022-11-25T04:29:27;2.20;86.30
26707;DHT22;14319;49.422;10.934;2022-11-25T04:31:29;2.30;86.00
26707;DHT22;14319;49.422;10.934;2022-11-25T04:33:29;2.40;85.70
26707;DHT22;14319;49.422;10.934;2022-11-25T04:35:33;2.40;85.50
26707;DHT22;14319;49.422;10.934;2022-11-25T04:37:34;2.20;85.50
26707;DHT22;14319;49.422;10.934;2022-11-25T04:39:34;2.20;86.20
26707;DHT22;14319;49.422;10.934;2022-11-25T04:41:42;2.10;86.80
26707;DHT22;14319;49.422;10.934;2022-11-25T04:43:43;2.10;86.00
26707;DHT22;14319;49.422;10.934;2022-11-25T04:45:46;2.10;86.30
26707;DHT22;14319;49.422;10.934;2022-11-25T04:47:47;2.00;86.30
26707;DHT22;14319;49.422;10.934;2022-11-25T04:49:48;2.00;86.50
26707;DHT22;14319;49.422;10.934;2022-11-25T04:51:50;1.80;86.00
26707;DHT22;14319;49.422;10.934;2022-11-25T04:53:50;1.80;86.40
26707;DHT22;14319;49.422;10.934;2022-11-25T04:55:51;1.70;86.30
26707;DHT22;14319;49.422;10.934;2022-11-25T04:57:53;1.80;87.30
26707;DHT22;14319;49.422;10.934;2022-11-25T04:59:53;1.80;86.90
26707;DHT22;14319;49.422;10.934;2022-11-25T05:01:54;1.90;87.30
26707;DHT22;14319;49.422;10.934;2022-11-25T05:04:05;1.90;86.30
26707;DHT22;14319;49.422;10.934;2022-11-25T05:06:07;1.80;86.20
26707;DHT22;14319;49.422;10.934;2022-11-25T05:08:10;1.80;86.30
26707;DHT22;14319;49.422;10.934;2022-11-25T05:10:12;1.70;86.40
26707;DHT22;14319;49.422;10.934;2022-11-25T05:12:18;1.80;86.00
26707;DHT22;14319;49.422;10.934;2022-11-25T05:14:19;1.70;85.60
26707;DHT22;14319;49.422;10.934;2022-11-25T05:16:20;1.60;85.40
26707;DHT22;14319;49.422;10.934;2022-11-25T05:18:21;1.40;84.30
26707;DHT22;14319;49.422;10.934;2022-11-25T05:20:22;1.50;86.00
26707;DHT22;14319;49.422;10.934;2022-11-25T05:22:24;1.60;86.30
26707;DHT22;14319;49.422;10.934;2022-11-25T05:24:25;1.70;85.80
26707;DHT22;14319;49.422;10.934;2022-11-25T05:26:26;1.70;85.80
26707;DHT22;14319;49.422;10.934;2022-11-25T05:28:30;1.70;84.80
26707;DHT22;14319;49.422;10.934;2022-11-25T05:30:31;1.70;85.30
26707;DHT22;14319;49.422;10.934;2022-11-25T05:32:32;1.80;85.30
26707;DHT22;14319;49.422;10.934;2022-11-25T05:34:34;1.80;85.10
26707;DHT22;14319;49.422;10.934;2022-11-25T05:36:34;1.80;84.30
26707;DHT22;14319;49.422;10.934;2022-11-25T05:38:37;1.70;83.90
26707;DHT22;14319;49.422;10.934;2022-11-25T05:40:37;1.50;84.60
26707;DHT22;14319;49.422;10.934;2022-11-25T05:42:45;1.40;85.00
26707;DHT22;14319;49.422;10.934;2022-11-25T05:44:45;1.40;85.10
26707;DHT22;14319;49.422;10.934;2022-11-25T05:46:47;1.30;85.10
26707;DHT22;14319;49.422;10.934;2022-11-25T05:48:51;1.20;85.20
26707;DHT22;14319;49.422;10.934;2022-11-25T05:50:52;1.30;86.60
26707;DHT22;14319;49.422;10.934;2022-11-25T05:52:56;1.30;85.80
26707;DHT22;14319;49.422;10.934;2022-11-25T05:55:00;1.20;86.70
26707;DHT22;14319;49.422;10.934;2022-11-25T05:57:01;1.30;86.20
26707;DHT22;14319;49.422;10.934;2022-11-25T05:59:01;1.30;86.70
26707;DHT22;14319;49.422;10.934;2022-11-25T06:01:15;1.30;86.20
26707;DHT22;14319;49.422;10.934;2022-11-25T06:03:17;1.30;86.00
26707;DHT22;14319;49.422;10.934;2022-11-25T06:05:18;1.30;86.80
26707;DHT22;14319;49.422;10.934;2022-11-25T06:07:19;1.40;87.10
26707;DHT22;14319;49.422;10.934;2022-11-25T06:09:22;1.40;86.10
26707;DHT22;14319;49.422;10.934;2022-11-25T06:11:24;1.40;86.80
26707;DHT22;14319;49.422;10.934;2022-11-25T06:13:27;1.50;87.40
26707;DHT22;14319;49.422;10.934;2022-11-25T06:15:28;1.60;86.50
26707;DHT22;14319;49.422;10.934;2022-11-25T06:17:30;1.60;86.00
26707;DHT22;14319;49.422;10.934;2022-11-25T06:19:57;1.60;86.30
26707;DHT22;14319;49.422;10.934;2022-11-25T06:21:57;1.60;86.40
26707;DHT22;14319;49.422;10.934;2022-11-25T06:24:00;1.60;86.40
26707;DHT22;14319;49.422;10.934;2022-11-25T06:26:01;1.70;86.30
26707;DHT22;14319;49.422;10.934;2022-11-25T06:28:02;1.70;85.30
26707;DHT22;14319;49.422;10.934;2022-11-25T06:30:03;1.70;86.50
26707;DHT22;14319;49.422;10.934;2022-11-25T06:32:04;1.80;86.80
26707;DHT22;14319;49.422;10.934;2022-11-25T06:34:16;1.90;87.00
26707;DHT22;14319;49.422;10.934;2022-11-25T06:36:17;1.90;85.20
26707;DHT22;14319;49.422;10.934;2022-11-25T06:38:18;2.00;85.20
26707;DHT22;14319;49.422;10.934;2022-11-25T06:40:19;2.10;84.50
26707;DHT22;14319;49.422;10.934;2022-11-25T06:42:19;2.20;83.70
26707;DHT22;14319;49.422;10.934;2022-11-25T06:44:20;2.20;83.90
26707;DHT22;14319;49.422;10.934;2022-11-25T06:46:20;2.30;84.10
26707;DHT22;14319;49.422;10.934;2022-11-25T06:48:27;2.30;83.60
26707;DHT22;14319;49.422;10.934;2022-11-25T06:50:28;2.30;83.50
26707;DHT22;14319;49.422;10.934;2022-11-25T06:52:29;2.00;82.60
26707;DHT22;14319;49.422;10.934;2022-11-25T06:54:30;1.90;84.60
26707;DHT22;14319;49.422;10.934;2022-11-25T06:56:31;2.00;84.90
26707;DHT22;14319;49.422;10.934;2022-11-25T06:58:32;2.10;85.20
26707;DHT22;14319;49.422;10.934;2022-11-25T07:00:32;2.00;85.10
26707;DHT22;14319;49.422;10.934;2022-11-25T07:02:33;2.00;85.60
26707;DHT22;14319;49.422;10.934;2022-11-25T07:04:34;2.00;86.20
26707;DHT22;14319;49.422;10.934;2022-11-25T07:06:35;2.00;86.30
26707;DHT22;14319;49.422;10.934;2022-11-25T07:08:36;2.00;87.10
26707;DHT22;14319;49.422;10.934;2022-11-25T07:10:36;2.20;86.80
26707;DHT22;14319;49.422;10.934;2022-11-25T07:12:37;2.20;86.70
26707;DHT22;14319;49.422;10.934;2022-11-25T07:14:38;2.30;86.90
26707;DHT22;14319;49.422;10.934;2022-11-25T07:16:39;2.40;86.00
26707;DHT22;14319;49.422;10.934;2022-11-25T07:18:40;2.50;86.50
26707;DHT22;14319;49.422;10.934;2022-11-25T07:20:44;2.60;86.40
26707;DHT22;14319;49.422;10.934;2022-11-25T07:22:44;2.50;86.20
26707;DHT22;14319;49.422;10.934;2022-11-25T07:24:45;2.50;86.40
26707;DHT22;14319;49.422;10.934;2022-11-25T07:26:46;2.50;86.80
26707;DHT22;14319;49.422;10.934;2022-11-25T07:28:47;2.50;86.70
26707;DHT22;14319;49.422;10.934;2022-11-25T07:30:48;1.90;83.10
26707;DHT22;14319;49.422;10.934;2022-11-25T07:32:49;1.70;85.80
26707;DHT22;14319;49.422;10.934;2022-11-25T07:34:49;1.90;86.90
26707;DHT22;14319;49.422;10.934;2022-11-25T07:36:50;2.00;86.90
26707;DHT22;14319;49.422;10.934;2022-11-25T07:38:51;2.20;86.60
26707;DHT22;14319;49.422;10.934;2022-11-25T07:40:52;2.40;86.00
26707;DHT22;14319;49.422;10.934;2022-11-25T07:42:53;2.50;85.50
26707;DHT22;14319;49.422;10.934;2022-11-25T07:44:55;2.60;84.30
26707;DHT22;14319;49.422;10.934;2022-11-25T07:47:13;2.70;83.70
26707;DHT22;14319;49.422;10.934;2022-11-25T07:49:15;2.50;83.80
26707;DHT22;14319;49.422;10.934;2022-11-25T07:51:16;2.30;84.80
26707;DHT22;14319;49.422;10.934;2022-11-25T07:53:17;2.40;84.80
26707;DHT22;14319;49.422;10.934;2022-11-25T07:55:18;2.40;84.70
26707;DHT22;14319;49.422;10.934;2022-11-25T07:57:18;2.30;85.30
26707;DHT22;14319;49.422;10.934;2022-11-25T07:59:19;2.30;86.00
26707;DHT22;14319;49.422;10.934;2022-11-25T08:01:20;2.30;86.10
26707;DHT22;14319;49.422;10.934;2022-11-25T08:03:21;2.30;86.40
26707;DHT22;14319;49.422;10.934;2022-11-25T08:05:21;2.30;87.00
26707;DHT22;14319;49.422;10.934;2022-11-25T08:07:22;2.40;87.20
26707;DHT22;14319;49.422;10.934;2022-11-25T08:09:22;2.40;87.10
26707;DHT22;14319;49.422;10.934;2022-11-25T08:11:24;2.50;87.10
26707;DHT22;14319;49.422;10.934;2022-11-25T08:13:25;2.00;83.60
26707;DHT22;14319;49.422;10.934;2022-11-25T08:15:25;1.60;86.00
26707;DHT22;14319;49.422;10.934;2022-11-25T08:17:26;1.50;87.60
26707;DHT22;14319;49.422;10.934;2022-11-25T08:19:27;1.50;87.90
26707;DHT22;14319;49.422;10.934;2022-11-25T08:21:28;1.60;88.40
26707;DHT22;14319;49.422;10.934;2022-11-25T08:23:29;1.80;89.20
26707;DHT22;14319;49.422;10.934;2022-11-25T08:25:29;1.90;89.50
26707;DHT22;14319;49.422;10.934;2022-11-25T08:27:31;2.00;89.20
26707;DHT22;14319;49.422;10.934;2022-11-25T08:29:31;2.20;89.30
26707;DHT22;14319;49.422;10.934;2022-11-25T08:31:36;2.30;89.30
26707;DHT22;14319;49.422;10.934;2022-11-25T08:33:37;2.30;89.20
26707;DHT22;14319;49.422;10.934;2022-11-25T08:35:37;2.40;89.00
26707;DHT22;14319;49.422;10.934;2022-11-25T08:37:38;2.40;89.40
26707;DHT22;14319;49.422;10.934;2022-11-25T08:39:39;2.40;88.80
26707;DHT22;14319;49.422;10.934;2022-11-25T08:41:39;2.50;89.90
26707;DHT22;14319;49.422;10.934;2022-11-25T08:43:40;2.60;89.30
26707;DHT22;14319;49.422;10.934;2022-11-25T08:45:41;2.50;90.10
26707;DHT22;14319;49.422;10.934;2022-11-25T08:47:41;2.50;90.70
26707;DHT22;14319;49.422;10.934;2022-11-25T08:49:45;2.60;90.50
26707;DHT22;14319;49.422;10.934;2022-11-25T08:51:45;2.60;91.00
26707;DHT22;14319;49.422;10.934;2022-11-25T08:53:47;2.70;91.00
26707;DHT22;14319;49.422;10.934;2022-11-25T08:55:50;2.70;90.90
26707;DHT22;14319;49.422;10.934;2022-11-25T08:57:50;2.80;90.70
26707;DHT22;14319;49.422;10.934;2022-11-25T08:59:51;2.90;90.40
26707;DHT22;14319;49.422;10.934;2022-11-25T09:01:57;2.90;90.70
26707;DHT22;14319;49.422;10.934;2022-11-25T09:03:57;2.90;90.80
26707;DHT22;14319;49.422;10.934;2022-11-25T09:05:58;3.00;90.70
26707;DHT22;14319;49.422;10.934;2022-11-25T09:08:02;3.10;90.80
26707;DHT22;14319;49.422;10.934;2022-11-25T09:10:04;3.00;91.00
26707;DHT22;14319;49.422;10.934;2022-11-25T09:12:05;3.10;91.20
26707;DHT22;14319;49.422;10.934;2022-11-25T09:14:06;3.10;91.70
26707;DHT22;14319;49.422;10.934;2022-11-25T09:16:07;3.20;91.60
26707;DHT22;14319;49.422;10.934;2022-11-25T09:18:09;3.20;91.90
26707;DHT22;14319;49.422;10.934;2022-11-25T09:20:10;3.20;92.50
26707;DHT22;14319;49.422;10.934;2022-11-25T09:22:10;3.30;92.40
26707;DHT22;14319;49.422;10.934;2022-11-25T09:24:11;3.40;92.40
26707;DHT22;14319;49.422;10.934;2022-11-25T09:26:33;3.50;92.00
26707;DHT22;14319;49.422;10.934;2022-11-25T09:28:35;3.60;92.00
26707;DHT22;14319;49.422;10.934;2022-11-25T09:30:36;3.70;92.00
26707;DHT22;14319;49.422;10.934;2022-11-25T09:32:36;3.70;92.40
26707;DHT22;14319;49.422;10.934;2022-11-25T09:34:37;3.80;92.20
26707;DHT22;14319;49.422;10.934;2022-11-25T09:36:38;3.90;91.90
26707;DHT22;14319;49.422;10.934;2022-11-25T09:38:39;4.10;91.40
26707;DHT22;14319;49.422;10.934;2022-11-25T09:40:53;4.20;91.60
26707;DHT22;14319;49.422;10.934;2022-11-25T09:42:57;4.20;91.40
26707;DHT22;14319;49.422;10.934;2022-11-25T09:45:28;4.30;91.60
26707;DHT22;14319;49.422;10.934;2022-11-25T09:52:22;4.60;91.50
26707;DHT22;14319;49.422;10.934;2022-11-25T09:54:35;4.60;90.90
26707;DHT22;14319;49.422;10.934;2022-11-25T09:58:50;4.90;91.10
26707;DHT22;14319;49.422;10.934;2022-11-25T10:00:51;5.00;90.80
26707;DHT22;14319;49.422;10.934;2022-11-25T10:02:58;5.00;90.70
26707;DHT22;14319;49.422;10.934;2022-11-25T10:05:02;5.00;90.30
26707;DHT22;14319;49.422;10.934;2022-11-25T10:07:07;5.00;90.50
26707;DHT22;14319;49.422;10.934;2022-11-25T10:09:10;5.00;90.70
26707;DHT22;14319;49.422;10.934;2022-11-25T10:13:47;5.00;90.40
26707;DHT22;14319;49.422;10.934;2022-11-25T10:15:52;5.00;91.20
26707;DHT22;14319;49.422;10.934;2022-11-25T10:17:54;5.00;91.00
26707;DHT22;14319;49.422;10.934;2022-11-25T10:22:01;5.10;90.90
26707;DHT22;14319;49.422;10.934;2022-11-25T10:24:11;5.20;91.00
26707;DHT22;14319;49.422;10.934;2022-11-25T10:26:15;5.20;91.10
26707;DHT22;14319;49.422;10.934;2022-11-25T10:28:20;5.30;91.00
26707;DHT22;14319;49.422;10.934;2022-11-25T10:30:24;5.30;91.30
26707;DHT22;14319;49.422;10.934;2022-11-25T10:32:26;5.40;91.30
26707;DHT22;14319;49.422;10.934;2022-11-25T10:34:36;5.40;91.20
26707;DHT22;14319;49.422;10.934;2022-11-25T10:36:38;5.50;91.00
26707;DHT22;14319;49.422;10.934;2022-11-25T10:40:42;5.70;90.20
26707;DHT22;14319;49.422;10.934;2022-11-25T10:42:44;5.80;89.10
26707;DHT22;14319;49.422;10.934;2022-11-25T10:44:45;6.00;88.70
26707;DHT22;14319;49.422;10.934;2022-11-25T10:46:51;6.20;87.80
26707;DHT22;14319;49.422;10.934;2022-11-25T10:53:24;6.50;87.70
26707;DHT22;14319;49.422;10.934;2022-11-25T10:55:28;6.60;87.70
26707;DHT22;14319;49.422;10.934;2022-11-25T10:57:29;6.70;87.60
26707;DHT22;14319;49.422;10.934;2022-11-25T10:59:31;6.80;88.20
26707;DHT22;14319;49.422;10.934;2022-11-25T11:01:33;6.90;86.40
26707;DHT22;14319;49.422;10.934;2022-11-25T11:03:37;7.00;86.50
26707;DHT22;14319;49.422;10.934;2022-11-25T11:05:42;7.00;87.60
26707;DHT22;14319;49.422;10.934;2022-11-25T11:07:44;7.10;87.10
26707;DHT22;14319;49.422;10.934;2022-11-25T11:09:45;7.30;85.50
26707;DHT22;14319;49.422;10.934;2022-11-25T11:11:47;7.30;85.10
26707;DHT22;14319;49.422;10.934;2022-11-25T11:13:49;7.40;84.90
26707;DHT22;14319;49.422;10.934;2022-11-25T11:15:56;7.50;84.10
26707;DHT22;14319;49.422;10.934;2022-11-25T11:17:58;7.50;84.00
26707;DHT22;14319;49.422;10.934;2022-11-25T11:20:44;7.60;83.60
26707;DHT22;14319;49.422;10.934;2022-11-25T11:22:22;7.60;84.30
26707;DHT22;14319;49.422;10.934;2022-11-25T11:24:28;7.70;84.00
26707;DHT22;14319;49.422;10.934;2022-11-25T11:26:30;7.70;83.70
26707;DHT22;14319;49.422;10.934;2022-11-25T11:30:36;7.70;82.60
26707;DHT22;14319;49.422;10.934;2022-11-25T11:32:36;7.80;82.70
26707;DHT22;14319;49.422;10.934;2022-11-25T11:34:50;7.90;82.90
26707;DHT22;14319;49.422;10.934;2022-11-25T11:36:57;8.00;82.50
26707;DHT22;14319;49.422;10.934;2022-11-25T11:39:24;7.90;83.70
26707;DHT22;14319;49.422;10.934;2022-11-25T11:41:30;7.70;83.70
26707;DHT22;14319;49.422;10.934;2022-11-25T11:48:16;7.90;84.70
26707;DHT22;14319;49.422;10.934;2022-11-25T11:57:09;8.10;83.30
26707;DHT22;14319;49.422;10.934;2022-11-25T12:03:26;8.30;85.40
26707;DHT22;14319;49.422;10.934;2022-11-25T12:05:28;8.20;83.40
26707;DHT22;14319;49.422;10.934;2022-11-25T12:07:38;8.30;83.80
26707;DHT22;14319;49.422;10.934;2022-11-25T12:09:46;8.40;83.60
26707;DHT22;14319;49.422;10.934;2022-11-25T12:11:52;8.50;83.40
26707;DHT22;14319;49.422;10.934;2022-11-25T12:14:03;8.70;83.10
26707;DHT22;14319;49.422;10.934;2022-11-25T12:16:19;8.70;83.70
26707;DHT22;14319;49.422;10.934;2022-11-25T12:20:30;8.60;84.70
26707;DHT22;14319;49.422;10.934;2022-11-25T12:22:39;8.70;83.90
26707;DHT22;14319;49.422;10.934;2022-11-25T12:24:49;8.80;84.40
26707;DHT22;14319;49.422;10.934;2022-11-25T12:26:57;8.80;84.40
26707;DHT22;14319;49.422;10.934;2022-11-25T12:29:01;8.60;84.90
26707;DHT22;14319;49.422;10.934;2022-11-25T12:31:11;8.70;84.90
26707;DHT22;14319;49.422;10.934;2022-11-25T12:33:18;8.70;83.90
26707;DHT22;14319;49.422;10.934;2022-11-25T12:35:32;8.70;84.80
26707;DHT22;14319;49.422;10.934;2022-11-25T12:37:37;8.70;85.00
26707;DHT22;14319;49.422;10.934;2022-11-25T12:39:40;8.70;85.00
26707;DHT22;14319;49.422;10.934;2022-11-25T12:43:49;8.70;85.50
26707;DHT22;14319;49.422;10.934;2022-11-25T12:45:54;8.70;85.40
26707;DHT22;14319;49.422;10.934;2022-11-25T12:47:59;8.70;86.10
26707;DHT22;14319;49.422;10.934;2022-11-25T12:50:00;8.80;85.60
26707;DHT22;14319;49.422;10.934;2022-11-25T12:52:09;8.70;84.50
26707;DHT22;14319;49.422;10.934;2022-11-25T12:56:36;8.50;84.20
26707;DHT22;14319;49.422;10.934;2022-11-25T12:59:07;8.40;85.90
26707;DHT22;14319;49.422;10.934;2022-11-25T13:01:11;8.30;86.40
26707;DHT22;14319;49.422;10.934;2022-11-25T13:03:24;8.20;87.00
26707;DHT22;14319;49.422;10.934;2022-11-25T13:12:02;8.30;85.40
26707;DHT22;14319;49.422;10.934;2022-11-25T13:16:07;8.40;85.30
26707;DHT22;14319;49.422;10.934;2022-11-25T13:18:13;8.20;87.30
26707;DHT22;14319;49.422;10.934;2022-11-25T13:22:28;8.30;87.60
26707;DHT22;14319;49.422;10.934;2022-11-25T13:24:30;8.20;86.50
26707;DHT22;14319;49.422;10.934;2022-11-25T13:28:36;8.30;87.40
26707;DHT22;14319;49.422;10.934;2022-11-25T13:30:37;8.30;87.90
26707;DHT22;14319;49.422;10.934;2022-11-25T13:32:39;8.30;87.40
26707;DHT22;14319;49.422;10.934;2022-11-25T13:34:40;8.30;87.90
26707;DHT22;14319;49.422;10.934;2022-11-25T13:36:50;8.30;88.70
26707;DHT22;14319;49.422;10.934;2022-11-25T13:38:56;8.30;88.40
26707;DHT22;14319;49.422;10.934;2022-11-25T13:43:20;8.30;88.40
26707;DHT22;14319;49.422;10.934;2022-11-25T13:45:25;8.30;88.90
26707;DHT22;14319;49.422;10.934;2022-11-25T13:52:49;8.40;90.30
26707;DHT22;14319;49.422;10.934;2022-11-25T13:54:19;8.40;90.00
26707;DHT22;14319;49.422;10.934;2022-11-25T13:56:32;8.40;90.90
26707;DHT22;14319;49.422;10.934;2022-11-25T13:58:34;8.40;91.00
26707;DHT22;14319;49.422;10.934;2022-11-25T14:02:39;8.20;91.30
26707;DHT22;14319;49.422;10.934;2022-11-25T14:05:01;8.10;92.20
26707;DHT22;14319;49.422;10.934;2022-11-25T14:09:08;8.20;91.70
26707;DHT22;14319;49.422;10.934;2022-11-25T14:20:24;8.20;92.00